Boulder Muni, Boulder, CO, CO

11:06 AM MDT on October 20, 2019 (GMT -0600)
Boulder Muni, Boulder, CO

Weather History for KBDU - August, 2019

Change the Weather History Date:

Tuesday, August 6, 2019

  Actual Average Record
Temperature  
Mean Temperature 78 °F -  
Max Temperature 95 °F - 95 °F (2015)
Min Temperature 60 °F - 54 °F (2017)
Degree Days  
Heating Degree Days 0    
Month to date heating degree days  
Cooling Degree Days 12    
Month to date cooling degree days  
Growing Degree Days 28 (Base 50)    
Moisture  
Dew Point 49 °F    
Average Humidity 43    
Maximum Humidity 82    
Minimum Humidity 14    
Precipitation  
Precipitation 0.00 in - 0.03 in (2013)
Snow  
Snow 0.00 in - - ()
Snow Depth -    
Sea Level Pressure  
Sea Level Pressure 30.14 in    
Wind  
Wind Speed 3 mph (NE)    
Max Wind Speed 8 mph    
Max Gust Speed -    
Visibility 10 miles    
Events      
T = Trace of Precipitation, MM = Missing Value Source: NWS Daily Summary

Daily Weather History Graph

Daily Weather History Graph

Search for Another Location

Airport or City:

Astronomy

Aug. 06, 2019 Rise Set
Actual Time 6:03 AM MDT 8:09 PM MDT
Civil Twilight 5:33 AM MDT 8:39 PM MDT
Nautical Twilight 4:57 AM MDT 9:15 PM MDT
Astronomical Twilight 4:17 AM MDT 9:55 PM MDT
Moon 12:31 PM MDT (8/6) 11:55 PM MDT (8/6)
Length of Visible Light 15h 05m
Length of Day
14h 05m
Waxing Crescent, 39% of the Moon is Illuminated
Aug 6
Waxing Crescent
Aug 7
First Quarter
Aug 15
Full
Aug 23
Last Quarter
Aug 30
New

Hourly Weather History & Observations

Time (MDT) Temp. Dew Point Humidity Pressure Visibility Wind Dir Wind Speed Gust Speed Precip Events Conditions
12:12 AM 68.0 °F 53.6 °F 60% 30.24 in 10.0 mi East 3.5 mph - N/A   Clear
12:30 AM 64.4 °F 55.4 °F 73% 30.24 in 10.0 mi Calm Calm - N/A   Clear
12:54 AM 64.4 °F 55.4 °F 73% 30.25 in 10.0 mi Calm Calm - N/A   Clear
1:11 AM 62.6 °F 55.4 °F 77% 30.25 in 10.0 mi Calm Calm - N/A   Clear
1:29 AM 64.4 °F 55.4 °F 73% 30.25 in 10.0 mi West 3.5 mph - N/A   Scattered Clouds
1:53 AM 66.2 °F 55.4 °F 68% 30.24 in 10.0 mi WSW 3.5 mph - N/A   Scattered Clouds
2:12 AM 66.2 °F 55.4 °F 68% 30.24 in 10.0 mi Calm Calm - N/A   Clear
2:30 AM 64.4 °F 57.2 °F 77% 30.24 in 10.0 mi Calm Calm - N/A   Clear
2:54 AM 60.8 °F 55.4 °F 82% 30.24 in 10.0 mi Calm Calm - N/A   Clear
3:12 AM 62.6 °F 57.2 °F 82% 30.22 in 10.0 mi West 3.5 mph - N/A   Clear
3:30 AM 62.6 °F 55.4 °F 77% 30.22 in 10.0 mi Calm Calm - N/A   Clear
3:48 AM 62.6 °F 55.4 °F 77% 30.22 in 10.0 mi West 5.8 mph - N/A   Clear
4:12 AM 62.6 °F 55.4 °F 77% 30.22 in 10.0 mi SW 5.8 mph - N/A   Clear
4:30 AM 62.6 °F 53.6 °F 72% 30.21 in 10.0 mi WSW 3.5 mph - N/A   Clear
4:53 AM 62.6 °F 53.6 °F 72% 30.21 in 10.0 mi Calm Calm - N/A   Clear
5:12 AM 62.6 °F 53.6 °F 72% 30.20 in 10.0 mi SSW 3.5 mph - N/A   Clear
5:30 AM 62.6 °F 51.8 °F 68% 30.20 in 10.0 mi South 3.5 mph - N/A   Clear
5:48 AM 62.6 °F 51.8 °F 68% 30.19 in 10.0 mi SSW 6.9 mph - N/A   Clear
6:08 AM 62.6 °F 51.8 °F 68% 30.18 in 10.0 mi SW 5.8 mph - N/A   Clear
6:32 AM 64.4 °F 50.0 °F 59% 30.18 in 10.0 mi SSW 4.6 mph - N/A   Clear
6:50 AM 64.4 °F 51.8 °F 64% 30.18 in 10.0 mi Calm Calm - N/A   Clear
7:12 AM 64.4 °F 53.6 °F 68% 30.18 in 10.0 mi Calm Calm - N/A   Clear
7:30 AM 64.4 °F 53.6 °F 68% 30.18 in 10.0 mi Calm Calm - N/A   Clear
7:48 AM 66.2 °F 55.4 °F 68% 30.18 in 10.0 mi Calm Calm - N/A   Clear
8:12 AM 69.8 °F 53.6 °F 56% 30.18 in 10.0 mi Calm Calm - N/A   Clear
8:30 AM 69.8 °F 55.4 °F 60% 30.17 in 10.0 mi North 3.5 mph - N/A   Clear
8:48 AM 71.6 °F 51.8 °F 50% 30.17 in 10.0 mi Calm Calm - N/A   Clear
9:12 AM 73.4 °F 51.8 °F 47% 30.17 in 10.0 mi Calm Calm - N/A   Clear
9:30 AM 73.4 °F 51.8 °F 47% 30.17 in 10.0 mi Calm Calm - N/A   Clear
9:48 AM 77.0 °F 53.6 °F 44% 30.16 in 10.0 mi ESE 3.5 mph - N/A   Clear
10:12 AM 78.8 °F 51.8 °F 39% 30.16 in 10.0 mi Calm Calm - N/A   Clear
10:29 AM 80.6 °F 51.8 °F 37% 30.15 in 10.0 mi Calm Calm - N/A   Clear
10:53 AM 82.4 °F 51.8 °F 35% 30.15 in 10.0 mi ENE 3.5 mph - N/A   Clear
11:12 AM 82.4 °F 51.8 °F 35% 30.15 in 10.0 mi ENE 3.5 mph - N/A   Clear
11:30 AM 86.0 °F 50.0 °F 29% 30.14 in 10.0 mi ESE 3.5 mph - N/A   Clear
11:48 AM 87.8 °F 50.0 °F 27% 30.14 in 10.0 mi ESE 4.6 mph - N/A   Clear
12:12 PM 87.8 °F 50.0 °F 27% 30.14 in 10.0 mi Calm Calm - N/A   Clear
12:30 PM 87.8 °F 50.0 °F 27% 30.13 in 10.0 mi Calm Calm - N/A   Clear
12:54 PM 91.4 °F 46.4 °F 21% 30.12 in 10.0 mi NNE 3.5 mph - N/A   Clear
1:12 PM 91.4 °F 42.8 °F 18% 30.11 in 10.0 mi ESE 4.6 mph - N/A   Clear
1:30 PM 93.2 °F 44.6 °F 19% 30.11 in 10.0 mi East 3.5 mph - N/A   Clear
1:54 PM 91.4 °F 44.6 °F 20% 30.10 in 10.0 mi NE 3.5 mph - N/A   Clear
2:12 PM 91.4 °F 44.6 °F 20% 30.10 in 10.0 mi NNE 6.9 mph - N/A   Clear
2:30 PM 93.2 °F 42.8 °F 17% 30.09 in 10.0 mi NE 8.1 mph - N/A   Clear
2:54 PM 91.4 °F 41.0 °F 17% 30.08 in 10.0 mi ENE 8.1 mph - N/A   Clear
3:12 PM 89.6 °F 37.4 °F 16% 30.08 in 10.0 mi East 5.8 mph - N/A   Clear
3:30 PM 95.0 °F 39.2 °F 14% 30.07 in 10.0 mi East 4.6 mph - N/A   Clear
3:54 PM 91.4 °F 37.4 °F 15% 30.07 in 10.0 mi ENE 4.6 mph - N/A   Clear
4:12 PM 89.6 °F 41.0 °F 18% 30.07 in 10.0 mi NNE 4.6 mph - N/A   Clear
4:30 PM 91.4 °F 41.0 °F 17% 30.06 in 10.0 mi NE 3.5 mph - N/A   Clear
4:54 PM 89.6 °F 39.2 °F 17% 30.06 in 10.0 mi NNE 3.5 mph - N/A   Clear
5:12 PM 95.0 °F 41.0 °F 15% 30.05 in 10.0 mi NNE 3.5 mph - N/A   Clear
5:30 PM 95.0 °F 41.0 °F 15% 30.05 in 10.0 mi ESE 4.6 mph - N/A   Clear
5:54 PM 89.6 °F 41.0 °F 18% 30.04 in 10.0 mi ENE 4.6 mph - N/A   Clear
6:14 PM 89.6 °F 41.0 °F 18% 30.05 in 10.0 mi NE 3.5 mph - N/A   Clear
6:32 PM 89.6 °F 42.8 °F 20% 30.04 in 10.0 mi NNE 4.6 mph - N/A   Clear
6:50 PM 89.6 °F 44.6 °F 21% 30.04 in 10.0 mi NNE 3.5 mph - N/A   Clear
7:12 PM 86.0 °F 50.0 °F 29% 30.04 in 10.0 mi Calm Calm - N/A   Clear
7:30 PM 84.2 °F 50.0 °F 30% 30.05 in 10.0 mi NNW 5.8 mph - N/A   Clear
7:48 PM 80.6 °F 46.4 °F 30% 30.05 in 10.0 mi WNW 4.6 mph - N/A   Clear
8:12 PM 80.6 °F 46.4 °F 30% 30.06 in 10.0 mi WNW 5.8 mph - N/A   Clear
8:30 PM 80.6 °F 46.4 °F 30% 30.06 in 10.0 mi West 4.6 mph - N/A   Clear
8:48 PM 78.8 °F 46.4 °F 32% 30.07 in 10.0 mi WSW 4.6 mph - N/A   Clear
9:12 PM 78.8 °F 44.6 °F 30% 30.07 in 10.0 mi WSW 5.8 mph - N/A   Clear
9:30 PM 77.0 °F 46.4 °F 34% 30.07 in 10.0 mi Calm Calm - N/A   Clear
9:48 PM 75.2 °F 44.6 °F 34% 30.08 in 10.0 mi Calm Calm - N/A   Clear
10:12 PM 75.2 °F 48.2 °F 38% 30.08 in 10.0 mi Calm Calm - N/A   Clear
10:30 PM 75.2 °F 46.4 °F 36% 30.08 in 10.0 mi SW 5.8 mph - N/A   Clear
10:48 PM 73.4 °F 46.4 °F 38% 30.08 in 10.0 mi WSW 3.5 mph - N/A   Clear
11:12 PM 73.4 °F 42.8 °F 33% 30.07 in 10.0 mi SW 5.8 mph - N/A   Clear
11:30 PM 73.4 °F 46.4 °F 38% 30.07 in 10.0 mi West 6.9 mph - N/A   Clear
11:53 PM 71.6 °F 46.4 °F 41% 30.07 in 10.0 mi Calm Calm - N/A   Clear